sensor_id;sensor_type;location;lat;lon;timestamp;P1;durP1;ratioP1;P2;durP2;ratioP2
20855;SDS011;63058;49.424;8.420;2024-02-14T00:00:05;5.65;;;4.40;;
20855;SDS011;63058;49.424;8.420;2024-02-14T00:02:40;6.90;;;5.32;;
20855;SDS011;63058;49.424;8.420;2024-02-14T00:05:08;7.82;;;4.85;;
20855;SDS011;63058;49.424;8.420;2024-02-14T00:07:35;7.13;;;4.90;;
20855;SDS011;63058;49.424;8.420;2024-02-14T00:10:04;8.43;;;5.13;;
20855;SDS011;63058;49.424;8.420;2024-02-14T00:12:31;7.35;;;4.70;;
20855;SDS011;63058;49.424;8.420;2024-02-14T00:14:57;6.97;;;4.75;;
20855;SDS011;63058;49.424;8.420;2024-02-14T00:17:23;8.02;;;5.30;;
20855;SDS011;63058;49.424;8.420;2024-02-14T00:19:48;6.50;;;4.78;;
20855;SDS011;63058;49.424;8.420;2024-02-14T00:22:14;6.43;;;4.50;;
20855;SDS011;63058;49.424;8.420;2024-02-14T00:24:41;7.93;;;5.03;;
20855;SDS011;63058;49.424;8.420;2024-02-14T00:27:06;8.32;;;5.18;;
20855;SDS011;63058;49.424;8.420;2024-02-14T00:29:32;7.55;;;4.47;;
20855;SDS011;63058;49.424;8.420;2024-02-14T00:31:59;5.80;;;4.53;;
20855;SDS011;63058;49.424;8.420;2024-02-14T00:34:25;4.97;;;4.13;;
20855;SDS011;63058;49.424;8.420;2024-02-14T00:36:50;6.97;;;4.72;;
20855;SDS011;63058;49.424;8.420;2024-02-14T00:39:16;6.13;;;4.25;;
20855;SDS011;63058;49.424;8.420;2024-02-14T00:41:42;5.30;;;3.97;;
20855;SDS011;63058;49.424;8.420;2024-02-14T00:44:07;6.63;;;4.10;;
20855;SDS011;63058;49.424;8.420;2024-02-14T00:46:33;5.35;;;4.13;;
20855;SDS011;63058;49.424;8.420;2024-02-14T00:48:58;5.45;;;4.15;;
20855;SDS011;63058;49.424;8.420;2024-02-14T00:51:24;6.10;;;4.10;;
20855;SDS011;63058;49.424;8.420;2024-02-14T00:53:51;4.68;;;4.00;;
20855;SDS011;63058;49.424;8.420;2024-02-14T00:56:17;6.60;;;3.90;;
20855;SDS011;63058;49.424;8.420;2024-02-14T00:58:43;5.50;;;3.50;;
20855;SDS011;63058;49.424;8.420;2024-02-14T01:01:08;4.15;;;3.60;;
20855;SDS011;63058;49.424;8.420;2024-02-14T01:03:34;4.90;;;3.78;;
20855;SDS011;63058;49.424;8.420;2024-02-14T01:05:59;6.25;;;3.72;;
20855;SDS011;63058;49.424;8.420;2024-02-14T01:08:25;5.60;;;3.70;;
20855;SDS011;63058;49.424;8.420;2024-02-14T01:10:51;4.65;;;3.45;;
20855;SDS011;63058;49.424;8.420;2024-02-14T01:13:18;5.20;;;4.03;;
20855;SDS011;63058;49.424;8.420;2024-02-14T01:15:43;4.70;;;3.67;;
20855;SDS011;63058;49.424;8.420;2024-02-14T01:18:09;5.07;;;3.53;;
20855;SDS011;63058;49.424;8.420;2024-02-14T01:20:35;6.88;;;4.00;;
20855;SDS011;63058;49.424;8.420;2024-02-14T01:23:00;5.32;;;4.03;;
20855;SDS011;63058;49.424;8.420;2024-02-14T01:25:26;5.55;;;3.88;;
20855;SDS011;63058;49.424;8.420;2024-02-14T01:27:51;5.30;;;3.88;;
20855;SDS011;63058;49.424;8.420;2024-02-14T01:30:20;4.38;;;3.42;;
20855;SDS011;63058;49.424;8.420;2024-02-14T01:32:45;5.35;;;4.13;;
20855;SDS011;63058;49.424;8.420;2024-02-14T01:35:11;5.90;;;3.83;;
20855;SDS011;63058;49.424;8.420;2024-02-14T01:37:37;6.03;;;4.10;;
20855;SDS011;63058;49.424;8.420;2024-02-14T01:40:03;7.50;;;3.85;;
20855;SDS011;63058;49.424;8.420;2024-02-14T01:42:29;7.28;;;4.30;;
20855;SDS011;63058;49.424;8.420;2024-02-14T01:44:55;5.03;;;3.88;;
20855;SDS011;63058;49.424;8.420;2024-02-14T01:47:21;5.32;;;4.18;;
20855;SDS011;63058;49.424;8.420;2024-02-14T01:49:46;7.15;;;4.65;;
20855;SDS011;63058;49.424;8.420;2024-02-14T01:52:13;5.72;;;3.95;;
20855;SDS011;63058;49.424;8.420;2024-02-14T01:54:39;6.47;;;4.63;;
20855;SDS011;63058;49.424;8.420;2024-02-14T01:57:05;6.78;;;4.60;;
20855;SDS011;63058;49.424;8.420;2024-02-14T01:59:33;5.60;;;4.05;;
20855;SDS011;63058;49.424;8.420;2024-02-14T02:02:02;7.20;;;4.13;;
20855;SDS011;63058;49.424;8.420;2024-02-14T02:04:32;6.05;;;4.32;;
20855;SDS011;63058;49.424;8.420;2024-02-14T02:06:58;5.68;;;4.28;;
20855;SDS011;63058;49.424;8.420;2024-02-14T02:09:24;5.00;;;4.00;;
20855;SDS011;63058;49.424;8.420;2024-02-14T02:11:50;5.10;;;3.90;;
20855;SDS011;63058;49.424;8.420;2024-02-14T02:14:18;5.32;;;4.28;;
20855;SDS011;63058;49.424;8.420;2024-02-14T02:16:45;7.05;;;4.18;;
20855;SDS011;63058;49.424;8.420;2024-02-14T02:19:11;6.32;;;4.13;;
20855;SDS011;63058;49.424;8.420;2024-02-14T02:21:36;5.50;;;3.72;;
20855;SDS011;63058;49.424;8.420;2024-02-14T02:24:02;6.82;;;4.30;;
20855;SDS011;63058;49.424;8.420;2024-02-14T02:26:28;7.18;;;4.25;;
20855;SDS011;63058;49.424;8.420;2024-02-14T02:28:53;7.10;;;4.60;;
20855;SDS011;63058;49.424;8.420;2024-02-14T02:31:19;11.05;;;4.43;;
20855;SDS011;63058;49.424;8.420;2024-02-14T02:33:45;5.60;;;4.00;;
20855;SDS011;63058;49.424;8.420;2024-02-14T02:36:12;5.93;;;4.13;;
20855;SDS011;63058;49.424;8.420;2024-02-14T02:38:37;6.50;;;4.35;;
20855;SDS011;63058;49.424;8.420;2024-02-14T02:41:04;6.38;;;4.43;;
20855;SDS011;63058;49.424;8.420;2024-02-14T02:43:31;7.63;;;4.80;;
20855;SDS011;63058;49.424;8.420;2024-02-14T02:45:57;6.18;;;4.47;;
20855;SDS011;63058;49.424;8.420;2024-02-14T02:48:23;9.73;;;4.85;;
20855;SDS011;63058;49.424;8.420;2024-02-14T02:50:49;7.45;;;4.88;;
20855;SDS011;63058;49.424;8.420;2024-02-14T02:53:15;5.25;;;4.22;;
20855;SDS011;63058;49.424;8.420;2024-02-14T02:55:41;10.77;;;5.22;;
20855;SDS011;63058;49.424;8.420;2024-02-14T02:58:07;8.80;;;5.38;;
20855;SDS011;63058;49.424;8.420;2024-02-14T03:00:33;7.03;;;4.63;;
20855;SDS011;63058;49.424;8.420;2024-02-14T03:02:58;6.88;;;4.50;;
20855;SDS011;63058;49.424;8.420;2024-02-14T03:05:24;5.00;;;4.10;;
20855;SDS011;63058;49.424;8.420;2024-02-14T03:07:50;5.40;;;4.47;;
20855;SDS011;63058;49.424;8.420;2024-02-14T03:10:18;5.15;;;3.90;;
20855;SDS011;63058;49.424;8.420;2024-02-14T03:12:49;5.35;;;3.83;;
20855;SDS011;63058;49.424;8.420;2024-02-14T03:15:15;7.25;;;4.55;;
20855;SDS011;63058;49.424;8.420;2024-02-14T03:17:41;7.72;;;4.00;;
20855;SDS011;63058;49.424;8.420;2024-02-14T03:20:07;4.95;;;3.97;;
20855;SDS011;63058;49.424;8.420;2024-02-14T03:22:40;7.35;;;4.28;;
20855;SDS011;63058;49.424;8.420;2024-02-14T03:25:20;9.00;;;4.28;;
20855;SDS011;63058;49.424;8.420;2024-02-14T03:27:46;8.25;;;4.50;;
20855;SDS011;63058;49.424;8.420;2024-02-14T03:30:14;12.32;;;4.65;;
20855;SDS011;63058;49.424;8.420;2024-02-14T03:32:41;5.88;;;4.60;;
20855;SDS011;63058;49.424;8.420;2024-02-14T03:35:07;5.57;;;4.03;;
20855;SDS011;63058;49.424;8.420;2024-02-14T03:37:35;5.70;;;4.25;;
20855;SDS011;63058;49.424;8.420;2024-02-14T03:40:02;5.78;;;4.28;;
20855;SDS011;63058;49.424;8.420;2024-02-14T03:42:29;6.10;;;4.28;;
20855;SDS011;63058;49.424;8.420;2024-02-14T03:44:55;6.80;;;4.28;;
20855;SDS011;63058;49.424;8.420;2024-02-14T03:47:27;5.30;;;3.88;;
20855;SDS011;63058;49.424;8.420;2024-02-14T03:49:54;7.43;;;4.53;;
20855;SDS011;63058;49.424;8.420;2024-02-14T03:52:20;6.07;;;4.10;;
20855;SDS011;63058;49.424;8.420;2024-02-14T03:54:47;5.07;;;3.55;;
20855;SDS011;63058;49.424;8.420;2024-02-14T03:57:13;5.88;;;3.92;;
20855;SDS011;63058;49.424;8.420;2024-02-14T03:59:38;7.80;;;4.35;;
20855;SDS011;63058;49.424;8.420;2024-02-14T04:02:04;6.35;;;4.13;;
20855;SDS011;63058;49.424;8.420;2024-02-14T04:04:33;7.20;;;4.15;;
20855;SDS011;63058;49.424;8.420;2024-02-14T04:06:59;6.40;;;4.10;;
20855;SDS011;63058;49.424;8.420;2024-02-14T04:09:26;6.63;;;4.13;;
20855;SDS011;63058;49.424;8.420;2024-02-14T04:11:51;8.80;;;4.20;;
20855;SDS011;63058;49.424;8.420;2024-02-14T04:14:17;6.07;;;4.30;;
20855;SDS011;63058;49.424;8.420;2024-02-14T04:16:42;7.15;;;4.30;;
20855;SDS011;63058;49.424;8.420;2024-02-14T04:19:08;5.25;;;4.10;;
20855;SDS011;63058;49.424;8.420;2024-02-14T04:21:35;6.28;;;4.18;;
20855;SDS011;63058;49.424;8.420;2024-02-14T04:24:02;8.30;;;4.30;;
20855;SDS011;63058;49.424;8.420;2024-02-14T04:26:28;7.00;;;4.13;;
20855;SDS011;63058;49.424;8.420;2024-02-14T04:28:54;5.18;;;4.15;;
20855;SDS011;63058;49.424;8.420;2024-02-14T04:31:19;8.82;;;4.32;;
20855;SDS011;63058;49.424;8.420;2024-02-14T04:33:45;6.35;;;4.40;;
20855;SDS011;63058;49.424;8.420;2024-02-14T04:36:17;6.70;;;4.03;;
20855;SDS011;63058;49.424;8.420;2024-02-14T04:38:44;8.65;;;4.22;;
20855;SDS011;63058;49.424;8.420;2024-02-14T04:41:09;6.13;;;3.92;;
20855;SDS011;63058;49.424;8.420;2024-02-14T04:43:35;7.18;;;4.13;;
20855;SDS011;63058;49.424;8.420;2024-02-14T04:46:01;6.10;;;4.05;;
20855;SDS011;63058;49.424;8.420;2024-02-14T04:48:26;4.95;;;3.60;;
20855;SDS011;63058;49.424;8.420;2024-02-14T04:50:52;5.57;;;3.85;;
20855;SDS011;63058;49.424;8.420;2024-02-14T04:53:18;8.77;;;4.03;;
20855;SDS011;63058;49.424;8.420;2024-02-14T04:55:44;6.10;;;3.80;;
20855;SDS011;63058;49.424;8.420;2024-02-14T04:58:10;5.88;;;3.63;;
20855;SDS011;63058;49.424;8.420;2024-02-14T05:00:36;5.93;;;3.80;;
20855;SDS011;63058;49.424;8.420;2024-02-14T05:03:01;4.85;;;3.70;;
20855;SDS011;63058;49.424;8.420;2024-02-14T05:05:28;5.40;;;3.75;;
20855;SDS011;63058;49.424;8.420;2024-02-14T05:07:54;7.90;;;3.83;;
20855;SDS011;63058;49.424;8.420;2024-02-14T05:10:19;6.45;;;3.80;;
20855;SDS011;63058;49.424;8.420;2024-02-14T05:12:45;5.18;;;3.42;;
20855;SDS011;63058;49.424;8.420;2024-02-14T05:15:10;6.20;;;3.72;;
20855;SDS011;63058;49.424;8.420;2024-02-14T05:17:37;4.90;;;3.30;;
20855;SDS011;63058;49.424;8.420;2024-02-14T05:20:04;4.68;;;3.30;;
20855;SDS011;63058;49.424;8.420;2024-02-14T05:22:34;4.45;;;3.30;;
20855;SDS011;63058;49.424;8.420;2024-02-14T05:25:03;5.47;;;3.15;;
20855;SDS011;63058;49.424;8.420;2024-02-14T05:27:29;5.85;;;3.60;;
20855;SDS011;63058;49.424;8.420;2024-02-14T05:29:55;4.10;;;2.83;;
20855;SDS011;63058;49.424;8.420;2024-02-14T05:32:21;6.38;;;2.92;;
20855;SDS011;63058;49.424;8.420;2024-02-14T05:34:46;5.40;;;3.63;;
20855;SDS011;63058;49.424;8.420;2024-02-14T05:37:12;7.20;;;3.50;;
20855;SDS011;63058;49.424;8.420;2024-02-14T05:39:38;5.00;;;3.30;;
20855;SDS011;63058;49.424;8.420;2024-02-14T05:42:04;6.03;;;3.47;;
20855;SDS011;63058;49.424;8.420;2024-02-14T05:44:30;7.20;;;3.45;;
20855;SDS011;63058;49.424;8.420;2024-02-14T05:46:56;7.32;;;3.70;;
20855;SDS011;63058;49.424;8.420;2024-02-14T05:49:22;6.43;;;3.70;;
20855;SDS011;63058;49.424;8.420;2024-02-14T05:51:47;5.28;;;3.33;;
20855;SDS011;63058;49.424;8.420;2024-02-14T05:54:13;4.65;;;3.03;;
20855;SDS011;63058;49.424;8.420;2024-02-14T05:56:38;5.40;;;3.20;;
20855;SDS011;63058;49.424;8.420;2024-02-14T05:59:04;5.82;;;3.45;;
20855;SDS011;63058;49.424;8.420;2024-02-14T06:01:30;5.82;;;3.60;;
20855;SDS011;63058;49.424;8.420;2024-02-14T06:03:55;6.10;;;3.40;;
20855;SDS011;63058;49.424;8.420;2024-02-14T06:06:21;7.40;;;3.63;;
20855;SDS011;63058;49.424;8.420;2024-02-14T06:08:48;5.88;;;3.33;;
20855;SDS011;63058;49.424;8.420;2024-02-14T06:11:13;7.28;;;3.25;;
20855;SDS011;63058;49.424;8.420;2024-02-14T06:13:41;5.75;;;3.05;;
20855;SDS011;63058;49.424;8.420;2024-02-14T06:16:06;6.22;;;3.45;;
20855;SDS011;63058;49.424;8.420;2024-02-14T06:18:33;5.40;;;3.30;;
20855;SDS011;63058;49.424;8.420;2024-02-14T06:20:59;5.78;;;3.45;;
20855;SDS011;63058;49.424;8.420;2024-02-14T06:23:25;4.88;;;3.38;;
20855;SDS011;63058;49.424;8.420;2024-02-14T06:25:51;5.15;;;2.85;;
20855;SDS011;63058;49.424;8.420;2024-02-14T06:28:16;8.52;;;3.20;;
20855;SDS011;63058;49.424;8.420;2024-02-14T06:30:42;5.63;;;3.10;;
20855;SDS011;63058;49.424;8.420;2024-02-14T06:33:07;5.28;;;3.10;;
20855;SDS011;63058;49.424;8.420;2024-02-14T06:35:33;7.18;;;3.20;;
20855;SDS011;63058;49.424;8.420;2024-02-14T06:37:58;6.93;;;3.35;;
20855;SDS011;63058;49.424;8.420;2024-02-14T06:40:25;5.88;;;3.03;;
20855;SDS011;63058;49.424;8.420;2024-02-14T06:42:52;5.80;;;2.90;;
20855;SDS011;63058;49.424;8.420;2024-02-14T06:45:19;5.70;;;2.67;;
20855;SDS011;63058;49.424;8.420;2024-02-14T06:47:45;6.75;;;3.00;;
20855;SDS011;63058;49.424;8.420;2024-02-14T06:50:10;6.55;;;2.78;;
20855;SDS011;63058;49.424;8.420;2024-02-14T06:52:36;5.25;;;2.78;;
20855;SDS011;63058;49.424;8.420;2024-02-14T06:55:02;3.83;;;2.78;;
20855;SDS011;63058;49.424;8.420;2024-02-14T06:57:28;3.78;;;2.75;;
20855;SDS011;63058;49.424;8.420;2024-02-14T06:59:54;5.30;;;2.33;;
20855;SDS011;63058;49.424;8.420;2024-02-14T07:02:20;3.88;;;2.30;;
20855;SDS011;63058;49.424;8.420;2024-02-14T07:04:46;5.32;;;2.33;;
20855;SDS011;63058;49.424;8.420;2024-02-14T07:07:11;3.95;;;2.55;;
20855;SDS011;63058;49.424;8.420;2024-02-14T07:09:38;3.28;;;2.15;;
20855;SDS011;63058;49.424;8.420;2024-02-14T07:12:04;4.15;;;2.13;;
20855;SDS011;63058;49.424;8.420;2024-02-14T07:14:30;3.75;;;1.95;;
20855;SDS011;63058;49.424;8.420;2024-02-14T07:16:56;3.33;;;1.95;;
20855;SDS011;63058;49.424;8.420;2024-02-14T07:19:21;5.10;;;1.83;;
20855;SDS011;63058;49.424;8.420;2024-02-14T07:21:47;3.50;;;2.03;;
20855;SDS011;63058;49.424;8.420;2024-02-14T07:24:13;3.03;;;1.83;;
20855;SDS011;63058;49.424;8.420;2024-02-14T07:26:38;3.40;;;1.77;;
20855;SDS011;63058;49.424;8.420;2024-02-14T07:29:06;5.40;;;2.40;;
20855;SDS011;63058;49.424;8.420;2024-02-14T07:31:31;4.05;;;2.45;;
20855;SDS011;63058;49.424;8.420;2024-02-14T07:33:58;3.00;;;2.28;;
20855;SDS011;63058;49.424;8.420;2024-02-14T07:36:24;4.05;;;2.40;;
20855;SDS011;63058;49.424;8.420;2024-02-14T07:38:51;4.30;;;2.30;;
20855;SDS011;63058;49.424;8.420;2024-02-14T07:41:17;5.20;;;2.45;;
20855;SDS011;63058;49.424;8.420;2024-02-14T07:43:42;3.33;;;2.20;;
20855;SDS011;63058;49.424;8.420;2024-02-14T07:46:08;4.90;;;2.63;;
20855;SDS011;63058;49.424;8.420;2024-02-14T07:48:34;5.45;;;2.65;;
20855;SDS011;63058;49.424;8.420;2024-02-14T07:51:00;3.70;;;2.28;;
20855;SDS011;63058;49.424;8.420;2024-02-14T07:53:26;4.75;;;2.22;;
20855;SDS011;63058;49.424;8.420;2024-02-14T07:55:51;2.42;;;1.88;;
20855;SDS011;63058;49.424;8.420;2024-02-14T07:58:18;5.18;;;2.65;;
20855;SDS011;63058;49.424;8.420;2024-02-14T08:00:43;4.15;;;2.17;;
20855;SDS011;63058;49.424;8.420;2024-02-14T08:03:09;5.28;;;2.10;;
20855;SDS011;63058;49.424;8.420;2024-02-14T08:05:34;3.60;;;2.03;;
20855;SDS011;63058;49.424;8.420;2024-02-14T08:08:00;3.65;;;2.13;;
20855;SDS011;63058;49.424;8.420;2024-02-14T08:10:26;4.40;;;2.10;;
20855;SDS011;63058;49.424;8.420;2024-02-14T08:12:51;3.08;;;1.88;;
20855;SDS011;63058;49.424;8.420;2024-02-14T08:15:17;3.42;;;1.92;;
20855;SDS011;63058;49.424;8.420;2024-02-14T08:17:42;3.42;;;2.05;;
20855;SDS011;63058;49.424;8.420;2024-02-14T08:20:08;3.70;;;1.98;;
20855;SDS011;63058;49.424;8.420;2024-02-14T08:22:34;4.53;;;2.20;;
20855;SDS011;63058;49.424;8.420;2024-02-14T08:25:00;5.22;;;2.38;;
20855;SDS011;63058;49.424;8.420;2024-02-14T08:27:26;6.85;;;2.40;;
20855;SDS011;63058;49.424;8.420;2024-02-14T08:29:52;6.10;;;2.03;;
20855;SDS011;63058;49.424;8.420;2024-02-14T08:32:18;5.13;;;2.28;;
20855;SDS011;63058;49.424;8.420;2024-02-14T08:34:43;3.15;;;1.98;;
20855;SDS011;63058;49.424;8.420;2024-02-14T08:37:09;4.20;;;2.10;;
20855;SDS011;63058;49.424;8.420;2024-02-14T08:39:35;3.47;;;2.10;;
20855;SDS011;63058;49.424;8.420;2024-02-14T08:42:01;5.82;;;2.35;;
20855;SDS011;63058;49.424;8.420;2024-02-14T08:44:32;3.42;;;2.00;;
20855;SDS011;63058;49.424;8.420;2024-02-14T08:47:02;7.47;;;2.00;;
20855;SDS011;63058;49.424;8.420;2024-02-14T08:49:28;3.95;;;2.13;;
20855;SDS011;63058;49.424;8.420;2024-02-14T08:51:54;5.95;;;2.67;;
20855;SDS011;63058;49.424;8.420;2024-02-14T08:54:19;3.53;;;2.05;;
20855;SDS011;63058;49.424;8.420;2024-02-14T08:56:46;4.40;;;2.10;;
20855;SDS011;63058;49.424;8.420;2024-02-14T08:59:12;4.40;;;2.22;;
20855;SDS011;63058;49.424;8.420;2024-02-14T09:01:38;3.60;;;2.00;;
20855;SDS011;63058;49.424;8.420;2024-02-14T09:04:03;6.07;;;2.20;;
20855;SDS011;63058;49.424;8.420;2024-02-14T09:06:29;2.88;;;1.63;;
20855;SDS011;63058;49.424;8.420;2024-02-14T09:08:55;3.35;;;1.60;;
20855;SDS011;63058;49.424;8.420;2024-02-14T09:11:21;3.50;;;1.65;;
20855;SDS011;63058;49.424;8.420;2024-02-14T09:13:48;4.00;;;1.98;;
20855;SDS011;63058;49.424;8.420;2024-02-14T09:16:16;2.33;;;1.58;;
20855;SDS011;63058;49.424;8.420;2024-02-14T09:18:41;2.78;;;1.60;;
20855;SDS011;63058;49.424;8.420;2024-02-14T09:21:07;2.83;;;1.70;;
20855;SDS011;63058;49.424;8.420;2024-02-14T09:23:33;2.03;;;1.60;;
20855;SDS011;63058;49.424;8.420;2024-02-14T09:25:59;2.58;;;1.60;;
20855;SDS011;63058;49.424;8.420;2024-02-14T09:28:24;3.50;;;1.60;;
20855;SDS011;63058;49.424;8.420;2024-02-14T09:30:50;3.30;;;1.73;;
20855;SDS011;63058;49.424;8.420;2024-02-14T09:33:16;2.75;;;1.70;;
20855;SDS011;63058;49.424;8.420;2024-02-14T09:35:41;4.28;;;1.70;;
20855;SDS011;63058;49.424;8.420;2024-02-14T09:38:11;4.18;;;1.95;;
20855;SDS011;63058;49.424;8.420;2024-02-14T09:40:42;3.13;;;2.00;;
20855;SDS011;63058;49.424;8.420;2024-02-14T09:45:49;2.75;;;1.83;;
20855;SDS011;63058;49.424;8.420;2024-02-14T09:48:17;4.25;;;1.90;;
20855;SDS011;63058;49.424;8.420;2024-02-14T09:50:44;3.67;;;1.73;;
20855;SDS011;63058;49.424;8.420;2024-02-14T09:53:12;3.03;;;1.67;;
20855;SDS011;63058;49.424;8.420;2024-02-14T09:55:38;3.45;;;1.90;;
20855;SDS011;63058;49.424;8.420;2024-02-14T09:58:05;2.55;;;1.70;;
20855;SDS011;63058;49.424;8.420;2024-02-14T10:00:31;2.83;;;1.50;;
20855;SDS011;63058;49.424;8.420;2024-02-14T10:02:58;3.75;;;1.92;;
20855;SDS011;63058;49.424;8.420;2024-02-14T10:05:24;3.28;;;1.92;;
20855;SDS011;63058;49.424;8.420;2024-02-14T10:07:50;3.40;;;1.50;;
20855;SDS011;63058;49.424;8.420;2024-02-14T10:10:15;3.90;;;2.00;;
20855;SDS011;63058;49.424;8.420;2024-02-14T10:12:41;2.47;;;1.45;;
20855;SDS011;63058;49.424;8.420;2024-02-14T10:15:08;2.60;;;1.67;;
20855;SDS011;63058;49.424;8.420;2024-02-14T10:17:33;3.03;;;1.70;;
20855;SDS011;63058;49.424;8.420;2024-02-14T10:20:01;3.67;;;1.90;;
20855;SDS011;63058;49.424;8.420;2024-02-14T10:22:34;3.00;;;1.90;;
20855;SDS011;63058;49.424;8.420;2024-02-14T10:25:04;4.07;;;1.80;;
20855;SDS011;63058;49.424;8.420;2024-02-14T10:27:35;2.95;;;1.98;;
20855;SDS011;63058;49.424;8.420;2024-02-14T10:30:03;4.22;;;1.98;;
20855;SDS011;63058;49.424;8.420;2024-02-14T10:32:30;3.78;;;2.22;;
20855;SDS011;63058;49.424;8.420;2024-02-14T10:34:55;6.25;;;1.88;;
20855;SDS011;63058;49.424;8.420;2024-02-14T10:37:21;3.38;;;1.50;;
20855;SDS011;63058;49.424;8.420;2024-02-14T10:39:49;5.15;;;1.92;;
20855;SDS011;63058;49.424;8.420;2024-02-14T10:42:17;3.53;;;1.75;;
20855;SDS011;63058;49.424;8.420;2024-02-14T10:44:44;4.63;;;1.90;;
20855;SDS011;63058;49.424;8.420;2024-02-14T10:47:12;4.72;;;2.35;;
20855;SDS011;63058;49.424;8.420;2024-02-14T10:49:43;5.32;;;2.08;;
20855;SDS011;63058;49.424;8.420;2024-02-14T10:52:11;4.18;;;2.05;;
20855;SDS011;63058;49.424;8.420;2024-02-14T10:54:40;5.50;;;2.25;;
20855;SDS011;63058;49.424;8.420;2024-02-14T10:57:11;2.78;;;1.75;;
20855;SDS011;63058;49.424;8.420;2024-02-14T10:59:38;3.63;;;2.15;;
20855;SDS011;63058;49.424;8.420;2024-02-14T11:02:08;3.78;;;1.90;;
20855;SDS011;63058;49.424;8.420;2024-02-14T11:04:34;3.42;;;1.88;;
20855;SDS011;63058;49.424;8.420;2024-02-14T11:07:00;2.22;;;1.55;;
20855;SDS011;63058;49.424;8.420;2024-02-14T11:09:31;3.10;;;1.98;;
20855;SDS011;63058;49.424;8.420;2024-02-14T11:12:00;3.60;;;1.35;;
20855;SDS011;63058;49.424;8.420;2024-02-14T11:14:29;3.97;;;1.80;;
20855;SDS011;63058;49.424;8.420;2024-02-14T11:16:58;1.85;;;1.13;;
20855;SDS011;63058;49.424;8.420;2024-02-14T11:19:30;3.15;;;1.50;;
20855;SDS011;63058;49.424;8.420;2024-02-14T11:21:58;2.33;;;1.20;;
20855;SDS011;63058;49.424;8.420;2024-02-14T11:24:27;2.67;;;1.15;;
20855;SDS011;63058;49.424;8.420;2024-02-14T11:26:54;3.58;;;1.50;;
20855;SDS011;63058;49.424;8.420;2024-02-14T11:29:28;3.60;;;1.55;;
20855;SDS011;63058;49.424;8.420;2024-02-14T11:31:59;1.80;;;1.25;;
20855;SDS011;63058;49.424;8.420;2024-02-14T11:34:25;2.40;;;1.02;;
20855;SDS011;63058;49.424;8.420;2024-02-14T11:36:51;1.25;;;1.05;;
20855;SDS011;63058;49.424;8.420;2024-02-14T11:39:17;3.08;;;1.42;;
20855;SDS011;63058;49.424;8.420;2024-02-14T11:41:42;1.92;;;1.20;;
20855;SDS011;63058;49.424;8.420;2024-02-14T11:44:08;2.92;;;1.10;;
20855;SDS011;63058;49.424;8.420;2024-02-14T11:46:37;2.88;;;1.20;;
20855;SDS011;63058;49.424;8.420;2024-02-14T11:49:04;2.25;;;1.30;;
20855;SDS011;63058;49.424;8.420;2024-02-14T11:51:31;1.83;;;1.13;;
20855;SDS011;63058;49.424;8.420;2024-02-14T11:53:59;5.32;;;2.10;;
20855;SDS011;63058;49.424;8.420;2024-02-14T11:56:35;3.67;;;1.77;;
20855;SDS011;63058;49.424;8.420;2024-02-14T11:59:02;1.80;;;1.02;;
20855;SDS011;63058;49.424;8.420;2024-02-14T12:01:30;1.23;;;0.82;;
20855;SDS011;63058;49.424;8.420;2024-02-14T12:03:57;2.00;;;0.82;;
20855;SDS011;63058;49.424;8.420;2024-02-14T12:06:25;1.50;;;0.90;;
20855;SDS011;63058;49.424;8.420;2024-02-14T12:08:56;1.45;;;1.05;;
20855;SDS011;63058;49.424;8.420;2024-02-14T12:11:22;1.70;;;1.20;;
20855;SDS011;63058;49.424;8.420;2024-02-14T12:13:49;2.95;;;1.20;;
20855;SDS011;63058;49.424;8.420;2024-02-14T12:16:15;1.75;;;1.05;;
20855;SDS011;63058;49.424;8.420;2024-02-14T12:18:41;1.20;;;1.00;;
20855;SDS011;63058;49.424;8.420;2024-02-14T12:21:06;1.85;;;1.10;;
20855;SDS011;63058;49.424;8.420;2024-02-14T12:23:35;1.55;;;0.90;;
20855;SDS011;63058;49.424;8.420;2024-02-14T12:26:02;1.60;;;0.90;;
20855;SDS011;63058;49.424;8.420;2024-02-14T12:28:28;1.90;;;0.90;;
20855;SDS011;63058;49.424;8.420;2024-02-14T12:30:56;1.70;;;0.80;;
20855;SDS011;63058;49.424;8.420;2024-02-14T12:33:22;1.20;;;0.90;;
20855;SDS011;63058;49.424;8.420;2024-02-14T12:35:58;1.00;;;0.70;;
20855;SDS011;63058;49.424;8.420;2024-02-14T12:39:01;2.80;;;0.90;;
20855;SDS011;63058;49.424;8.420;2024-02-14T12:45:03;1.67;;;0.85;;
20855;SDS011;63058;49.424;8.420;2024-02-14T12:48:01;2.15;;;0.85;;
20855;SDS011;63058;49.424;8.420;2024-02-14T12:50:41;1.52;;;0.95;;
20855;SDS011;63058;49.424;8.420;2024-02-14T12:53:56;1.85;;;1.00;;
20855;SDS011;63058;49.424;8.420;2024-02-14T12:57:03;1.75;;;1.10;;
20855;SDS011;63058;49.424;8.420;2024-02-14T13:00:10;2.38;;;1.15;;
20855;SDS011;63058;49.424;8.420;2024-02-14T13:02:52;1.65;;;0.90;;
20855;SDS011;63058;49.424;8.420;2024-02-14T13:05:50;1.40;;;0.90;;
20855;SDS011;63058;49.424;8.420;2024-02-14T13:08:33;1.45;;;0.85;;
20855;SDS011;63058;49.424;8.420;2024-02-14T13:11:04;1.45;;;0.90;;
20855;SDS011;63058;49.424;8.420;2024-02-14T13:13:33;1.00;;;0.80;;
20855;SDS011;63058;49.424;8.420;2024-02-14T13:16:07;0.95;;;0.65;;
20855;SDS011;63058;49.424;8.420;2024-02-14T13:18:41;1.27;;;0.70;;
20855;SDS011;63058;49.424;8.420;2024-02-14T13:21:06;0.85;;;0.70;;
20855;SDS011;63058;49.424;8.420;2024-02-14T13:23:32;0.90;;;0.60;;
20855;SDS011;63058;49.424;8.420;2024-02-14T13:25:58;1.25;;;0.70;;
20855;SDS011;63058;49.424;8.420;2024-02-14T13:28:23;1.58;;;0.90;;
20855;SDS011;63058;49.424;8.420;2024-02-14T13:30:49;1.50;;;0.90;;
20855;SDS011;63058;49.424;8.420;2024-02-14T13:33:15;1.60;;;0.90;;
20855;SDS011;63058;49.424;8.420;2024-02-14T13:35:40;1.67;;;0.90;;
20855;SDS011;63058;49.424;8.420;2024-02-14T13:38:06;0.80;;;0.75;;
20855;SDS011;63058;49.424;8.420;2024-02-14T13:40:32;2.35;;;0.75;;
20855;SDS011;63058;49.424;8.420;2024-02-14T13:42:57;0.93;;;0.80;;
20855;SDS011;63058;49.424;8.420;2024-02-14T13:45:23;1.50;;;0.90;;
20855;SDS011;63058;49.424;8.420;2024-02-14T13:47:50;1.35;;;0.70;;
20855;SDS011;63058;49.424;8.420;2024-02-14T13:50:17;1.38;;;0.50;;
20855;SDS011;63058;49.424;8.420;2024-02-14T13:52:43;1.08;;;0.70;;
20855;SDS011;63058;49.424;8.420;2024-02-14T13:55:09;1.10;;;0.85;;
20855;SDS011;63058;49.424;8.420;2024-02-14T13:57:39;2.13;;;0.60;;
20855;SDS011;63058;49.424;8.420;2024-02-14T14:00:05;0.60;;;0.60;;
20855;SDS011;63058;49.424;8.420;2024-02-14T14:02:34;0.93;;;0.70;;
20855;SDS011;63058;49.424;8.420;2024-02-14T14:05:02;0.63;;;0.63;;
20855;SDS011;63058;49.424;8.420;2024-02-14T14:07:28;1.33;;;0.80;;
20855;SDS011;63058;49.424;8.420;2024-02-14T14:09:54;1.05;;;0.70;;
20855;SDS011;63058;49.424;8.420;2024-02-14T14:12:19;0.80;;;0.60;;
20855;SDS011;63058;49.424;8.420;2024-02-14T14:14:45;1.52;;;0.75;;
20855;SDS011;63058;49.424;8.420;2024-02-14T14:17:11;1.25;;;0.77;;
20855;SDS011;63058;49.424;8.420;2024-02-14T14:19:36;1.70;;;0.70;;
20855;SDS011;63058;49.424;8.420;2024-02-14T14:22:02;1.55;;;0.80;;
20855;SDS011;63058;49.424;8.420;2024-02-14T14:24:27;1.05;;;0.60;;
20855;SDS011;63058;49.424;8.420;2024-02-14T14:26:56;1.08;;;0.70;;
20855;SDS011;63058;49.424;8.420;2024-02-14T14:29:21;1.88;;;0.80;;
20855;SDS011;63058;49.424;8.420;2024-02-14T14:31:47;1.00;;;0.65;;
20855;SDS011;63058;49.424;8.420;2024-02-14T14:34:13;0.70;;;0.50;;
20855;SDS011;63058;49.424;8.420;2024-02-14T14:36:39;1.42;;;0.70;;
20855;SDS011;63058;49.424;8.420;2024-02-14T14:39:06;0.82;;;0.40;;
20855;SDS011;63058;49.424;8.420;2024-02-14T14:41:31;0.73;;;0.55;;
20855;SDS011;63058;49.424;8.420;2024-02-14T14:43:57;1.25;;;0.50;;
20855;SDS011;63058;49.424;8.420;2024-02-14T14:46:24;0.55;;;0.38;;
20855;SDS011;63058;49.424;8.420;2024-02-14T14:48:50;0.60;;;0.60;;
20855;SDS011;63058;49.424;8.420;2024-02-14T14:51:16;0.60;;;0.50;;
20855;SDS011;63058;49.424;8.420;2024-02-14T14:53:41;2.25;;;0.60;;